createdAt,value
2018-11-05T00:01:07.427Z,11.57
2018-11-05T00:03:36.445Z,11.10
2018-11-05T00:06:05.975Z,10.77
2018-11-05T00:08:34.984Z,10.03
2018-11-05T00:11:03.986Z,10.03
2018-11-05T00:13:33.053Z,10.93
2018-11-05T00:16:02.061Z,11.40
2018-11-05T00:18:31.030Z,11.00
2018-11-05T00:21:00.039Z,12.13
2018-11-05T00:23:29.034Z,11.00
2018-11-05T00:25:58.011Z,12.43
2018-11-05T00:28:27.015Z,13.00
2018-11-05T00:30:55.998Z,11.67
2018-11-05T00:33:25.058Z,11.00
2018-11-05T00:35:54.095Z,10.40
2018-11-05T00:38:23.109Z,11.00
2018-11-05T00:40:52.103Z,10.50
2018-11-05T00:43:21.100Z,10.33
2018-11-05T00:45:50.168Z,11.20
2018-11-05T00:48:19.087Z,10.60
2018-11-05T00:50:48.202Z,10.87
2018-11-05T00:53:17.190Z,11.53
2018-11-05T00:55:46.274Z,11.07
2018-11-05T00:58:15.624Z,13.87
2018-11-05T01:00:44.574Z,12.13
2018-11-05T01:03:13.562Z,14.53
2018-11-05T01:05:42.594Z,12.27
2018-11-05T01:08:11.603Z,11.63
2018-11-05T01:10:40.618Z,11.47
2018-11-05T01:13:09.610Z,11.50
2018-11-05T01:15:38.628Z,12.20
2018-11-05T01:18:07.599Z,11.57
2018-11-05T01:20:36.606Z,11.10
2018-11-05T01:23:05.591Z,12.13
2018-11-05T01:25:34.570Z,11.77
2018-11-05T01:28:03.574Z,10.80
2018-11-05T01:30:32.580Z,10.40
2018-11-05T01:33:01.594Z,10.47
2018-11-05T01:35:30.639Z,10.93
2018-11-05T01:37:59.751Z,9.40
2018-11-05T01:40:28.741Z,10.70
2018-11-05T01:42:57.715Z,10.93
2018-11-05T01:45:26.745Z,10.50
2018-11-05T01:47:55.851Z,10.83
2018-11-05T01:50:24.844Z,10.03
2018-11-05T01:52:53.837Z,10.23
2018-11-05T01:55:22.823Z,10.00
2018-11-05T01:57:51.794Z,9.97
2018-11-05T02:00:20.798Z,11.10
2018-11-05T02:02:49.802Z,10.50
2018-11-05T02:05:19.039Z,10.50
2018-11-05T02:07:48.018Z,9.80
2018-11-05T02:10:19.075Z,9.57
2018-11-05T02:12:48.015Z,10.47
2018-11-05T02:15:17.272Z,10.67
2018-11-05T02:17:46.839Z,10.00
2018-11-05T02:20:16.723Z,10.90
2018-11-05T02:22:45.858Z,11.50
2018-11-05T02:25:15.074Z,11.37
2018-11-05T02:27:44.068Z,11.87
2018-11-05T02:30:15.296Z,12.50
2018-11-05T02:32:44.573Z,12.80
2018-11-05T02:35:14.284Z,13.33
2018-11-05T02:37:43.958Z,12.37
2018-11-05T02:40:14.338Z,12.47
2018-11-05T02:42:43.904Z,12.50
2018-11-05T02:45:14.041Z,13.87
2018-11-05T02:47:43.046Z,13.23
2018-11-05T02:50:12.842Z,12.80
2018-11-05T02:52:42.622Z,13.30
2018-11-05T02:55:11.630Z,13.60
2018-11-05T02:57:40.649Z,12.23
2018-11-05T03:00:12.082Z,12.43
2018-11-05T03:02:41.370Z,13.07
2018-11-05T03:05:12.716Z,14.00
2018-11-05T03:07:41.994Z,12.53
2018-11-05T03:10:11.755Z,13.13
2018-11-05T03:12:41.446Z,13.40
2018-11-05T03:15:12.812Z,13.90
2018-11-05T03:17:41.811Z,14.40
2018-11-05T03:20:11.882Z,14.10
2018-11-05T03:22:41.514Z,13.60
2018-11-05T03:25:10.586Z,14.23
2018-11-05T03:27:39.905Z,13.53
2018-11-05T03:30:14.309Z,14.00
2018-11-05T03:32:43.435Z,13.17
2018-11-05T03:35:13.152Z,14.03
2018-11-05T03:37:42.957Z,14.47
2018-11-05T03:40:12.939Z,14.30
2018-11-05T03:42:42.310Z,14.40
2018-11-05T03:45:12.578Z,13.87
2018-11-05T03:47:41.545Z,14.67
2018-11-05T03:50:13.171Z,13.80
2018-11-05T03:52:42.641Z,14.17
2018-11-05T03:55:11.974Z,14.37
2018-11-05T03:57:40.951Z,14.30
2018-11-05T04:00:11.487Z,14.37
2018-11-05T04:02:40.674Z,14.43
2018-11-05T04:05:09.820Z,15.07
2018-11-05T04:07:39.282Z,14.93
2018-11-05T04:10:09.183Z,13.90
2018-11-05T04:12:38.163Z,14.73
2018-11-05T04:15:07.432Z,15.70
2018-11-05T04:17:36.434Z,14.57
2018-11-05T04:20:07.879Z,14.43
2018-11-05T04:22:36.878Z,13.80
2018-11-05T04:25:05.887Z,14.60
2018-11-05T04:27:34.865Z,14.33
2018-11-05T04:30:04.121Z,14.50
2018-11-05T04:32:33.123Z,14.17
2018-11-05T04:35:02.278Z,12.97
2018-11-05T04:37:31.246Z,14.20
2018-11-05T04:40:00.238Z,14.70
2018-11-05T04:42:29.238Z,13.57
2018-11-05T04:44:58.338Z,13.70
2018-11-05T04:47:27.344Z,13.57
2018-11-05T04:49:56.339Z,12.80
2018-11-05T04:52:25.360Z,13.90
2018-11-05T04:54:54.463Z,13.63
2018-11-05T04:57:23.466Z,13.77
2018-11-05T04:59:52.454Z,14.07
2018-11-05T05:02:21.554Z,13.27
2018-11-05T05:04:50.556Z,13.77
2018-11-05T05:07:19.522Z,13.30
2018-11-05T05:09:48.514Z,14.43
2018-11-05T05:12:17.554Z,14.43
2018-11-05T05:14:46.552Z,13.47
2018-11-05T05:17:15.574Z,13.93
2018-11-05T05:19:44.676Z,13.70
2018-11-05T05:22:13.650Z,14.57
2018-11-05T05:24:42.655Z,15.23
2018-11-05T05:27:11.683Z,16.53
2018-11-05T05:29:40.724Z,16.37
2018-11-05T05:32:09.882Z,15.97
2018-11-05T05:34:38.892Z,16.47
2018-11-05T05:37:07.973Z,17.90
2018-11-05T05:39:36.971Z,17.20
2018-11-05T05:42:06.270Z,16.73
2018-11-05T05:44:35.278Z,17.23
2018-11-05T05:47:04.258Z,17.03
2018-11-05T05:49:33.258Z,17.53
2018-11-05T05:52:02.230Z,22.13
2018-11-05T05:54:31.363Z,16.80
2018-11-05T05:57:00.359Z,17.03
2018-11-05T05:59:29.334Z,16.73
2018-11-05T06:01:58.351Z,17.40
2018-11-05T06:04:27.726Z,17.33
2018-11-05T06:06:56.776Z,18.50
2018-11-05T06:09:25.750Z,17.63
2018-11-05T06:11:54.749Z,16.70
2018-11-05T06:14:23.751Z,18.13
2018-11-05T06:16:52.730Z,19.00
2018-11-05T06:19:21.830Z,18.93
2018-11-05T06:21:50.892Z,19.40
2018-11-05T06:24:19.818Z,18.53
2018-11-05T06:26:48.800Z,19.27
2018-11-05T06:29:17.863Z,19.13
2018-11-05T06:31:46.909Z,19.87
2018-11-05T06:34:15.946Z,19.40
2018-11-05T06:36:44.917Z,19.13
2018-11-05T06:39:14.282Z,19.20
2018-11-05T06:41:43.613Z,20.27
2018-11-05T06:44:12.564Z,20.57
2018-11-05T06:46:41.512Z,20.67
2018-11-05T06:49:10.519Z,19.90
2018-11-05T06:51:39.590Z,20.07
2018-11-05T06:54:08.587Z,20.53
2018-11-05T06:56:38.170Z,19.93
2018-11-05T06:59:07.171Z,19.63
2018-11-05T07:01:36.171Z,18.50
2018-11-05T07:04:05.438Z,19.83
2018-11-05T07:06:34.432Z,18.77
2018-11-05T07:09:03.464Z,19.20
2018-11-05T07:11:32.501Z,18.90
2018-11-05T07:14:01.484Z,20.30
2018-11-05T07:16:30.450Z,20.33
2018-11-05T07:18:59.706Z,19.00
2018-11-05T07:21:28.764Z,19.87
2018-11-05T07:23:57.866Z,17.30
2018-11-05T07:26:26.977Z,18.57
2018-11-05T07:28:55.949Z,18.67
2018-11-05T07:31:25.299Z,19.30
2018-11-05T07:33:54.458Z,19.80
2018-11-05T07:36:23.322Z,19.57
2018-11-05T07:38:52.327Z,19.80
2018-11-05T07:41:21.315Z,18.93
2018-11-05T07:43:50.334Z,19.57
2018-11-05T07:46:19.316Z,17.87
2018-11-05T07:48:48.294Z,18.27
2018-11-05T07:51:17.283Z,18.33
2018-11-05T07:53:46.293Z,18.70
2018-11-05T07:56:15.289Z,18.97
2018-11-05T07:58:44.270Z,19.60
2018-11-05T08:01:13.244Z,18.87
2018-11-05T08:03:42.297Z,20.07
2018-11-05T08:06:11.279Z,19.30
2018-11-05T08:08:40.366Z,19.63
2018-11-05T08:11:09.372Z,20.67
2018-11-05T08:13:38.370Z,20.07
2018-11-05T08:16:07.408Z,20.70
2018-11-05T08:18:36.447Z,21.27
2018-11-05T08:21:05.559Z,20.70
2018-11-05T08:23:34.563Z,20.60
2018-11-05T08:26:03.534Z,21.40
2018-11-05T08:28:32.547Z,20.23
2018-11-05T08:31:01.691Z,21.00
2018-11-05T08:33:30.722Z,21.00
2018-11-05T08:35:59.714Z,21.57
2018-11-05T08:38:28.715Z,21.47
2018-11-05T08:40:57.681Z,22.13
2018-11-05T08:43:26.950Z,20.50
2018-11-05T08:45:55.962Z,20.80
2018-11-05T08:48:24.978Z,21.70
2018-11-05T08:50:54.140Z,20.40
2018-11-05T08:53:23.065Z,20.57
2018-11-05T08:55:52.042Z,22.80
2018-11-05T08:58:21.070Z,22.57
2018-11-05T09:01:21.938Z,21.30
2018-11-05T09:03:51.002Z,20.77
2018-11-05T09:06:19.986Z,22.13
2018-11-05T09:08:49.000Z,21.57
2018-11-05T09:11:18.424Z,21.70
2018-11-05T09:13:47.072Z,21.20
2018-11-05T09:16:16.157Z,20.87
2018-11-05T09:18:45.166Z,21.67
2018-11-05T09:21:14.164Z,22.20
2018-11-05T09:23:43.167Z,22.03
2018-11-05T09:26:12.146Z,21.87
2018-11-05T09:28:41.173Z,22.17
2018-11-05T09:31:10.167Z,20.27
2018-11-05T09:33:39.191Z,20.93
2018-11-05T09:36:08.257Z,21.50
2018-11-05T09:38:37.294Z,21.63
2018-11-05T09:41:07.522Z,20.97
2018-11-05T09:43:36.695Z,20.80
2018-11-05T09:46:05.943Z,21.80
2018-11-05T09:48:34.922Z,20.47
2018-11-05T09:51:04.056Z,21.27
2018-11-05T09:53:33.051Z,22.10
2018-11-05T09:56:02.023Z,21.90
2018-11-05T09:58:31.037Z,21.53
2018-11-05T10:01:00.007Z,20.67
2018-11-05T10:03:29.300Z,21.90
2018-11-05T10:05:58.054Z,21.27
2018-11-05T10:08:27.052Z,20.57
2018-11-05T10:10:56.048Z,20.70
2018-11-05T10:13:25.034Z,20.23
2018-11-05T10:15:54.011Z,20.37
2018-11-05T10:18:23.023Z,20.40
2018-11-05T10:20:52.095Z,19.90
2018-11-05T10:23:21.101Z,19.80
2018-11-05T10:25:50.082Z,20.87
2018-11-05T10:28:19.102Z,19.37
2018-11-05T10:30:48.155Z,20.77
2018-11-05T10:33:17.177Z,19.40
2018-11-05T10:35:51.582Z,21.00
2018-11-05T10:38:20.771Z,20.17
2018-11-05T10:40:49.758Z,21.43
2018-11-05T10:43:18.744Z,20.97
2018-11-05T10:45:47.747Z,20.30
2018-11-05T10:48:16.724Z,19.93
2018-11-05T10:50:45.789Z,19.57
2018-11-05T10:53:14.731Z,19.57
2018-11-05T10:55:43.734Z,21.17
2018-11-05T10:58:12.839Z,20.17
2018-11-05T11:00:47.077Z,20.07
2018-11-05T11:03:18.747Z,21.67
2018-11-05T11:05:47.767Z,20.60
2018-11-05T11:08:16.766Z,19.83
2018-11-05T11:10:45.794Z,20.90
2018-11-05T11:13:14.795Z,20.93
2018-11-05T11:15:43.802Z,20.37
2018-11-05T11:18:12.819Z,20.80
2018-11-05T11:20:41.807Z,20.80
2018-11-05T11:23:10.818Z,22.23
2018-11-05T11:25:39.803Z,20.77
2018-11-05T11:28:08.860Z,20.57
2018-11-05T11:30:37.803Z,21.20
2018-11-05T11:33:06.783Z,20.33
2018-11-05T11:35:35.801Z,20.43
2018-11-05T11:38:05.142Z,20.43
2018-11-05T11:40:34.182Z,20.67
2018-11-05T11:43:03.174Z,20.30
2018-11-05T11:45:32.283Z,20.80
2018-11-05T11:48:01.295Z,20.17
2018-11-05T11:50:30.279Z,21.23
2018-11-05T11:52:59.339Z,19.97
2018-11-05T11:55:28.272Z,21.93
2018-11-05T11:57:57.295Z,21.40
2018-11-05T12:00:27.142Z,20.20
2018-11-05T12:02:56.126Z,21.17
2018-11-05T12:05:25.359Z,20.60
2018-11-05T12:07:54.263Z,21.17
2018-11-05T12:10:24.309Z,22.30
2018-11-05T12:12:53.322Z,20.90
2018-11-05T12:15:22.847Z,21.93
2018-11-05T12:17:52.699Z,21.00
2018-11-05T12:20:22.895Z,20.40
2018-11-05T12:22:52.477Z,21.83
2018-11-05T12:25:21.482Z,20.87
2018-11-05T12:27:50.489Z,19.97
2018-11-05T12:30:20.901Z,19.83
2018-11-05T12:32:50.714Z,20.47
2018-11-05T12:35:19.698Z,19.97
2018-11-05T12:37:49.737Z,20.83
2018-11-05T12:40:19.619Z,19.30
2018-11-05T12:42:49.559Z,22.30
2018-11-05T12:45:18.626Z,20.90
2018-11-05T12:47:47.675Z,21.80
2018-11-05T12:50:22.909Z,21.73
2018-11-05T12:52:53.115Z,22.37
2018-11-05T12:55:22.139Z,21.63
2018-11-05T12:57:51.140Z,21.50
2018-11-05T13:00:21.715Z,22.67
2018-11-05T13:02:53.091Z,21.67
2018-11-05T13:05:22.765Z,22.43
2018-11-05T13:07:51.746Z,21.93
2018-11-05T13:10:20.830Z,22.53
2018-11-05T13:12:49.963Z,21.73
2018-11-05T13:15:19.053Z,21.00
2018-11-05T13:17:47.957Z,21.57
2018-11-05T13:20:18.963Z,22.03
2018-11-05T13:22:48.184Z,22.23
2018-11-05T13:25:17.095Z,21.07
2018-11-05T13:27:47.226Z,21.23
2018-11-05T13:30:16.498Z,21.37
2018-11-05T13:32:45.836Z,21.60
2018-11-05T13:35:16.043Z,20.03
2018-11-05T13:37:45.691Z,20.67
2018-11-05T13:40:15.547Z,20.53
2018-11-05T13:42:44.904Z,21.00
2018-11-05T13:45:14.504Z,20.70
2018-11-05T13:47:44.273Z,20.80
2018-11-05T13:50:13.275Z,21.67
2018-11-05T13:52:42.204Z,21.57
2018-11-05T13:55:14.423Z,21.27
2018-11-05T13:57:44.797Z,19.37
2018-11-05T14:00:14.864Z,22.33
2018-11-05T14:02:43.883Z,21.23
2018-11-05T14:05:13.163Z,22.03
2018-11-05T14:07:42.232Z,21.23
2018-11-05T14:10:16.802Z,22.00
2018-11-05T14:12:46.415Z,21.77
2018-11-05T14:15:15.355Z,21.20
2018-11-05T14:17:44.906Z,21.13
2018-11-05T14:20:14.826Z,21.57
2018-11-05T14:22:43.947Z,22.30
2018-11-05T14:25:16.022Z,21.77
2018-11-05T14:27:46.331Z,21.97
2018-11-05T14:30:15.402Z,21.90
2018-11-05T14:32:46.759Z,21.37
2018-11-05T14:35:15.838Z,21.27
2018-11-05T14:37:45.154Z,21.17
2018-11-05T14:40:15.465Z,22.00
2018-11-05T14:42:44.485Z,22.30
2018-11-05T14:45:14.703Z,21.03
2018-11-05T14:47:44.627Z,21.13
2018-11-05T14:50:15.106Z,20.30
2018-11-05T14:52:44.110Z,20.77
2018-11-05T14:55:14.877Z,23.27
2018-11-05T14:57:44.999Z,22.30
2018-11-05T15:00:16.033Z,21.20
2018-11-05T15:02:45.712Z,20.77
2018-11-05T15:05:15.140Z,21.27
2018-11-05T15:07:45.137Z,21.63
2018-11-05T15:10:16.253Z,23.37
2018-11-05T15:12:45.387Z,23.67
2018-11-05T15:15:14.910Z,22.97
2018-11-05T15:17:44.411Z,22.03
2018-11-05T15:20:17.917Z,21.23
2018-11-05T15:22:46.708Z,21.87
2018-11-05T15:25:16.022Z,22.10
2018-11-05T15:27:45.024Z,23.67
2018-11-05T15:30:16.077Z,25.30
2018-11-05T15:32:45.455Z,25.20
2018-11-05T15:35:14.726Z,24.50
2018-11-05T15:37:44.162Z,23.07
2018-11-05T15:40:16.203Z,23.07
2018-11-05T15:42:45.214Z,23.43
2018-11-05T15:45:15.530Z,21.93
2018-11-05T15:47:44.572Z,21.80
2018-11-05T15:50:14.952Z,20.40
2018-11-05T15:52:44.529Z,20.50
2018-11-05T15:55:13.359Z,21.70
2018-11-05T15:57:42.342Z,21.07
2018-11-05T16:00:16.158Z,19.93
2018-11-05T16:02:46.293Z,21.50
2018-11-05T16:05:15.366Z,21.37
2018-11-05T16:07:44.433Z,20.73
2018-11-05T16:10:13.485Z,20.80
2018-11-05T16:12:42.519Z,21.17
2018-11-05T16:15:12.177Z,21.47
2018-11-05T16:17:47.835Z,21.67
2018-11-05T16:20:18.134Z,21.43
2018-11-05T16:22:48.068Z,21.73
2018-11-05T16:25:17.087Z,21.07
2018-11-05T16:27:46.125Z,22.13
2018-11-05T16:30:16.706Z,21.60
2018-11-05T16:32:46.228Z,22.00
2018-11-05T16:35:15.272Z,22.93
2018-11-05T16:37:44.238Z,23.67
2018-11-05T16:40:14.583Z,22.67
2018-11-05T16:42:44.220Z,23.50
2018-11-05T16:45:13.219Z,22.93
2018-11-05T16:47:42.631Z,23.90
2018-11-05T16:50:15.194Z,23.60
2018-11-05T16:52:44.297Z,22.27
2018-11-05T16:55:14.178Z,23.53
2018-11-05T16:57:43.650Z,23.87
2018-11-05T17:00:13.231Z,22.60
2018-11-05T17:02:42.981Z,23.60
2018-11-05T17:05:11.895Z,23.60
2018-11-05T17:07:41.011Z,22.97
2018-11-05T17:10:11.215Z,22.63
2018-11-05T17:12:40.507Z,23.83
2018-11-05T17:15:10.819Z,23.03
2018-11-05T17:17:40.306Z,24.00
2018-11-05T17:20:11.770Z,24.17
2018-11-05T17:22:41.511Z,24.50
2018-11-05T17:25:11.226Z,23.97
2018-11-05T17:27:40.425Z,23.13
2018-11-05T17:30:12.829Z,24.33
2018-11-05T17:32:42.532Z,24.93
2018-11-05T17:35:11.806Z,23.90
2018-11-05T17:37:40.899Z,22.80
2018-11-05T17:40:12.169Z,24.03
2018-11-05T17:42:41.462Z,24.77
2018-11-05T17:45:11.996Z,24.63
2018-11-05T17:47:41.027Z,25.20
2018-11-05T17:50:12.200Z,24.90
2018-11-05T17:52:41.414Z,24.53
2018-11-05T17:55:11.289Z,25.93
2018-11-05T17:57:41.127Z,25.63
2018-11-05T18:00:13.851Z,24.60
2018-11-05T18:02:42.862Z,25.33
2018-11-05T18:05:11.866Z,25.23
2018-11-05T18:07:40.889Z,23.07
2018-11-05T18:10:09.886Z,27.73
2018-11-05T18:12:39.007Z,25.53
2018-11-05T18:15:09.326Z,23.47
2018-11-05T18:17:38.778Z,24.47
2018-11-05T18:20:08.987Z,23.17
2018-11-05T18:22:37.984Z,24.67
2018-11-05T18:25:08.882Z,25.70
2018-11-05T18:27:37.954Z,25.57
2018-11-05T18:30:07.739Z,27.13
2018-11-05T18:32:36.759Z,25.67
2018-11-05T18:35:07.435Z,27.90
2018-11-05T18:37:36.507Z,27.57
2018-11-05T18:40:08.022Z,27.07
2018-11-05T18:42:37.087Z,24.77
2018-11-05T18:45:07.033Z,26.07
2018-11-05T18:47:36.189Z,26.60
2018-11-05T18:50:07.547Z,26.37
2018-11-05T18:52:37.674Z,27.70
2018-11-05T18:55:08.700Z,25.50
2018-11-05T18:57:38.241Z,27.33
2018-11-05T19:00:20.570Z,27.70
2018-11-05T19:02:50.262Z,26.90
2018-11-05T19:05:19.930Z,26.20
2018-11-05T19:07:49.143Z,25.27
2018-11-05T19:10:18.125Z,28.60
2018-11-05T19:12:47.647Z,27.13
2018-11-05T19:15:16.904Z,26.53
2018-11-05T19:17:46.554Z,26.53
2018-11-05T19:20:15.708Z,26.00
2018-11-05T19:22:45.161Z,26.83
2018-11-05T19:25:14.738Z,25.77
2018-11-05T19:27:43.865Z,26.43
2018-11-05T19:30:16.060Z,25.90
2018-11-05T19:32:45.435Z,25.30
2018-11-05T19:35:14.413Z,24.50
2018-11-05T19:37:43.607Z,23.93
2018-11-05T19:40:13.596Z,23.73
2018-11-05T19:42:43.725Z,24.97
2018-11-05T19:45:14.483Z,26.33
2018-11-05T19:47:43.594Z,26.27
2018-11-05T19:50:14.517Z,25.83
2018-11-05T19:52:44.445Z,26.10
2018-11-05T19:55:14.442Z,25.77
2018-11-05T19:57:44.210Z,23.33
2018-11-05T20:00:22.526Z,24.83
2018-11-05T20:02:51.663Z,25.20
2018-11-05T20:05:20.660Z,26.03
2018-11-05T20:07:50.489Z,24.03
2018-11-05T20:10:19.579Z,26.23
2018-11-05T20:12:48.622Z,26.20
2018-11-05T20:15:17.717Z,26.57
2018-11-05T20:17:47.526Z,25.67
2018-11-05T20:20:17.796Z,27.20
2018-11-05T20:22:46.858Z,26.30
2018-11-05T20:25:15.859Z,26.00
2018-11-05T20:27:45.084Z,27.57
2018-11-05T20:30:30.490Z,27.63
2018-11-05T20:33:00.099Z,28.60
2018-11-05T20:35:28.671Z,27.47
2018-11-05T20:37:57.674Z,25.70
2018-11-05T20:40:26.755Z,27.27
2018-11-05T20:42:55.822Z,26.87
2018-11-05T20:45:25.080Z,26.53
2018-11-05T20:47:54.215Z,25.13
2018-11-05T20:50:23.170Z,25.00
2018-11-05T20:52:52.207Z,26.53
2018-11-05T20:55:21.170Z,26.13
2018-11-05T20:57:50.918Z,26.50
2018-11-05T21:00:21.058Z,25.57
2018-11-05T21:02:50.095Z,26.93
2018-11-05T21:05:19.108Z,28.43
2018-11-05T21:07:48.126Z,26.63
2018-11-05T21:10:17.099Z,26.80
2018-11-05T21:12:46.119Z,25.57
2018-11-05T21:15:17.257Z,26.97
2018-11-05T21:17:47.050Z,27.53
2018-11-05T21:20:16.154Z,30.27
2018-11-05T21:22:45.610Z,41.30
2018-11-05T21:25:21.032Z,44.30
2018-11-05T21:27:50.020Z,38.67
2018-11-05T21:30:20.258Z,35.03
2018-11-05T21:32:49.305Z,33.33
2018-11-05T21:35:19.367Z,36.50
2018-11-05T21:37:48.372Z,31.30
2018-11-05T21:40:18.178Z,32.63
2018-11-05T21:42:47.182Z,34.33
2018-11-05T21:45:16.731Z,32.13
2018-11-05T21:47:46.209Z,31.73
2018-11-05T21:50:16.511Z,32.30
2018-11-05T21:52:45.835Z,31.20
2018-11-05T21:55:14.811Z,31.73
2018-11-05T21:57:45.290Z,29.87
2018-11-05T22:00:16.797Z,30.23
2018-11-05T22:02:51.030Z,29.70
2018-11-05T22:05:19.992Z,29.50
2018-11-05T22:07:49.169Z,29.07
2018-11-05T22:10:18.130Z,29.47
2018-11-05T22:12:47.723Z,30.90
2018-11-05T22:15:16.691Z,32.47
2018-11-05T22:17:45.728Z,35.57
2018-11-05T22:20:14.770Z,31.57
2018-11-05T22:22:43.841Z,30.40
2018-11-05T22:25:12.928Z,29.63
2018-11-05T22:27:42.078Z,29.23
2018-11-05T22:30:11.797Z,28.73
2018-11-05T22:32:41.470Z,27.40
2018-11-05T22:35:10.470Z,25.53
2018-11-05T22:37:39.466Z,25.20
2018-11-05T22:40:10.918Z,25.20
2018-11-05T22:42:40.719Z,23.77
2018-11-05T22:45:10.614Z,24.57
2018-11-05T22:47:39.612Z,25.87
2018-11-05T22:50:08.840Z,25.60
2018-11-05T22:52:38.220Z,27.27
2018-11-05T22:55:07.370Z,25.47
2018-11-05T22:57:36.402Z,25.17
2018-11-05T23:00:08.690Z,25.87
2018-11-05T23:02:40.520Z,24.03
2018-11-05T23:05:09.482Z,24.13
2018-11-05T23:07:38.474Z,24.90
2018-11-05T23:10:07.456Z,26.10
2018-11-05T23:12:36.425Z,27.50
2018-11-05T23:15:05.669Z,27.10
2018-11-05T23:17:34.655Z,25.73
2018-11-05T23:20:03.691Z,24.07
2018-11-05T23:22:32.691Z,22.57
2018-11-05T23:25:01.655Z,22.43
2018-11-05T23:27:30.651Z,23.53
2018-11-05T23:29:59.650Z,20.13
2018-11-05T23:32:28.635Z,21.00
2018-11-05T23:34:57.653Z,20.97
2018-11-05T23:37:26.638Z,19.93
2018-11-05T23:39:55.645Z,19.00
2018-11-05T23:42:24.616Z,18.73
2018-11-05T23:44:53.809Z,19.07
2018-11-05T23:47:27.292Z,18.70
2018-11-05T23:49:56.628Z,18.93
2018-11-05T23:52:26.050Z,19.80
2018-11-05T23:54:55.042Z,20.50
2018-11-05T23:57:24.115Z,19.43
2018-11-05T23:59:53.102Z,19.67
